sensor_id;sensor_type;location;lat;lon;timestamp;temperature;humidity
14236;DHT22;7202;50.718;7.072;2024-02-21T00:01:56;9.00;99.90
14236;DHT22;7202;50.718;7.072;2024-02-21T00:04:26;9.10;99.90
14236;DHT22;7202;50.718;7.072;2024-02-21T00:06:55;9.00;99.90
14236;DHT22;7202;50.718;7.072;2024-02-21T00:09:23;9.00;99.90
14236;DHT22;7202;50.718;7.072;2024-02-21T00:11:52;9.00;99.90
14236;DHT22;7202;50.718;7.072;2024-02-21T00:14:20;9.00;99.90
14236;DHT22;7202;50.718;7.072;2024-02-21T00:16:49;8.90;99.90
14236;DHT22;7202;50.718;7.072;2024-02-21T00:19:17;9.00;99.90
14236;DHT22;7202;50.718;7.072;2024-02-21T00:21:47;8.90;99.90
14236;DHT22;7202;50.718;7.072;2024-02-21T00:24:16;8.90;99.90
14236;DHT22;7202;50.718;7.072;2024-02-21T00:26:44;8.90;99.90
14236;DHT22;7202;50.718;7.072;2024-02-21T00:29:13;8.90;99.90
14236;DHT22;7202;50.718;7.072;2024-02-21T00:31:41;8.90;99.90
14236;DHT22;7202;50.718;7.072;2024-02-21T00:34:12;8.90;99.90
14236;DHT22;7202;50.718;7.072;2024-02-21T00:36:41;8.90;99.90
14236;DHT22;7202;50.718;7.072;2024-02-21T00:39:10;8.80;99.90
14236;DHT22;7202;50.718;7.072;2024-02-21T00:41:39;8.90;99.90
14236;DHT22;7202;50.718;7.072;2024-02-21T00:44:07;8.80;99.90
14236;DHT22;7202;50.718;7.072;2024-02-21T00:46:37;8.90;99.90
14236;DHT22;7202;50.718;7.072;2024-02-21T00:49:06;8.80;99.90
14236;DHT22;7202;50.718;7.072;2024-02-21T00:51:35;8.80;99.90
14236;DHT22;7202;50.718;7.072;2024-02-21T00:54:04;8.90;99.90
14236;DHT22;7202;50.718;7.072;2024-02-21T00:56:34;8.80;99.90
14236;DHT22;7202;50.718;7.072;2024-02-21T00:59:03;8.90;99.90
14236;DHT22;7202;50.718;7.072;2024-02-21T01:01:31;8.80;99.90
14236;DHT22;7202;50.718;7.072;2024-02-21T01:04:00;8.80;99.90
14236;DHT22;7202;50.718;7.072;2024-02-21T01:06:29;8.80;99.90
14236;DHT22;7202;50.718;7.072;2024-02-21T01:08:58;8.80;99.90
14236;DHT22;7202;50.718;7.072;2024-02-21T01:11:26;8.80;99.90
14236;DHT22;7202;50.718;7.072;2024-02-21T01:13:56;8.80;99.90
14236;DHT22;7202;50.718;7.072;2024-02-21T01:16:26;8.80;99.90
14236;DHT22;7202;50.718;7.072;2024-02-21T01:18:54;8.80;99.90
14236;DHT22;7202;50.718;7.072;2024-02-21T01:21:23;8.80;99.90
14236;DHT22;7202;50.718;7.072;2024-02-21T01:23:51;8.80;99.90
14236;DHT22;7202;50.718;7.072;2024-02-21T01:26:20;8.80;99.90
14236;DHT22;7202;50.718;7.072;2024-02-21T01:28:48;8.80;99.90
14236;DHT22;7202;50.718;7.072;2024-02-21T01:31:18;8.80;99.90
14236;DHT22;7202;50.718;7.072;2024-02-21T01:33:46;8.80;99.90
14236;DHT22;7202;50.718;7.072;2024-02-21T01:36:15;8.80;99.90
14236;DHT22;7202;50.718;7.072;2024-02-21T01:38:43;8.80;99.90
14236;DHT22;7202;50.718;7.072;2024-02-21T01:41:12;8.80;99.90
14236;DHT22;7202;50.718;7.072;2024-02-21T01:43:40;8.80;99.90
14236;DHT22;7202;50.718;7.072;2024-02-21T01:46:09;8.80;99.90
14236;DHT22;7202;50.718;7.072;2024-02-21T01:48:39;8.80;99.90
14236;DHT22;7202;50.718;7.072;2024-02-21T01:51:08;8.80;99.90
14236;DHT22;7202;50.718;7.072;2024-02-21T01:53:42;8.80;99.90
14236;DHT22;7202;50.718;7.072;2024-02-21T01:56:12;8.80;99.90
14236;DHT22;7202;50.718;7.072;2024-02-21T01:58:42;8.80;99.90
14236;DHT22;7202;50.718;7.072;2024-02-21T02:01:11;8.80;99.90
14236;DHT22;7202;50.718;7.072;2024-02-21T02:03:45;8.80;99.90
14236;DHT22;7202;50.718;7.072;2024-02-21T02:06:14;8.80;99.90
14236;DHT22;7202;50.718;7.072;2024-02-21T02:08:43;8.70;99.90
14236;DHT22;7202;50.718;7.072;2024-02-21T02:11:13;8.70;99.90
14236;DHT22;7202;50.718;7.072;2024-02-21T02:13:42;8.70;99.90
14236;DHT22;7202;50.718;7.072;2024-02-21T02:16:11;8.70;99.90
14236;DHT22;7202;50.718;7.072;2024-02-21T02:18:39;8.70;99.90
14236;DHT22;7202;50.718;7.072;2024-02-21T02:21:28;8.70;99.90
14236;DHT22;7202;50.718;7.072;2024-02-21T02:23:59;8.70;99.90
14236;DHT22;7202;50.718;7.072;2024-02-21T02:26:27;8.70;99.90
14236;DHT22;7202;50.718;7.072;2024-02-21T02:28:56;8.70;99.90
14236;DHT22;7202;50.718;7.072;2024-02-21T02:31:24;8.70;99.90
14236;DHT22;7202;50.718;7.072;2024-02-21T02:33:53;8.70;99.90
14236;DHT22;7202;50.718;7.072;2024-02-21T02:36:22;8.70;99.90
14236;DHT22;7202;50.718;7.072;2024-02-21T02:38:50;8.60;99.90
14236;DHT22;7202;50.718;7.072;2024-02-21T02:41:20;8.60;99.90
14236;DHT22;7202;50.718;7.072;2024-02-21T02:43:48;8.60;99.90
14236;DHT22;7202;50.718;7.072;2024-02-21T02:46:17;8.60;99.90
14236;DHT22;7202;50.718;7.072;2024-02-21T02:48:45;8.70;99.90
14236;DHT22;7202;50.718;7.072;2024-02-21T02:51:14;8.60;99.90
14236;DHT22;7202;50.718;7.072;2024-02-21T02:53:42;8.60;99.90
14236;DHT22;7202;50.718;7.072;2024-02-21T02:56:14;8.60;99.90
14236;DHT22;7202;50.718;7.072;2024-02-21T02:58:44;8.60;99.90
14236;DHT22;7202;50.718;7.072;2024-02-21T03:01:13;8.70;99.90
14236;DHT22;7202;50.718;7.072;2024-02-21T03:03:42;8.70;99.90
14236;DHT22;7202;50.718;7.072;2024-02-21T03:06:12;8.70;99.90
14236;DHT22;7202;50.718;7.072;2024-02-21T03:08:41;8.70;99.90
14236;DHT22;7202;50.718;7.072;2024-02-21T03:11:10;8.70;99.90
14236;DHT22;7202;50.718;7.072;2024-02-21T03:13:39;8.70;99.90
14236;DHT22;7202;50.718;7.072;2024-02-21T03:16:09;8.60;99.90
14236;DHT22;7202;50.718;7.072;2024-02-21T03:18:37;8.60;99.90
14236;DHT22;7202;50.718;7.072;2024-02-21T03:21:06;8.60;99.90
14236;DHT22;7202;50.718;7.072;2024-02-21T03:23:35;8.60;99.90
14236;DHT22;7202;50.718;7.072;2024-02-21T03:26:03;8.50;99.90
14236;DHT22;7202;50.718;7.072;2024-02-21T03:28:32;8.50;99.90
14236;DHT22;7202;50.718;7.072;2024-02-21T03:31:00;8.50;99.90
14236;DHT22;7202;50.718;7.072;2024-02-21T03:33:30;8.40;99.90
14236;DHT22;7202;50.718;7.072;2024-02-21T03:35:59;8.40;99.90
14236;DHT22;7202;50.718;7.072;2024-02-21T03:38:29;8.40;99.90
14236;DHT22;7202;50.718;7.072;2024-02-21T03:40:57;8.30;99.90
14236;DHT22;7202;50.718;7.072;2024-02-21T03:43:26;8.30;99.90
14236;DHT22;7202;50.718;7.072;2024-02-21T03:45:55;8.30;99.90
14236;DHT22;7202;50.718;7.072;2024-02-21T03:48:23;8.30;99.90
14236;DHT22;7202;50.718;7.072;2024-02-21T03:50:53;8.30;99.90
14236;DHT22;7202;50.718;7.072;2024-02-21T03:53:22;8.20;99.90
14236;DHT22;7202;50.718;7.072;2024-02-21T03:55:50;8.20;99.90
14236;DHT22;7202;50.718;7.072;2024-02-21T03:58:19;8.20;99.90
14236;DHT22;7202;50.718;7.072;2024-02-21T04:00:48;8.20;99.90
14236;DHT22;7202;50.718;7.072;2024-02-21T04:03:16;8.10;99.90
14236;DHT22;7202;50.718;7.072;2024-02-21T04:05:45;8.10;99.90
14236;DHT22;7202;50.718;7.072;2024-02-21T04:08:14;8.10;99.90
14236;DHT22;7202;50.718;7.072;2024-02-21T04:10:43;8.10;99.90
14236;DHT22;7202;50.718;7.072;2024-02-21T04:13:11;8.10;99.90
14236;DHT22;7202;50.718;7.072;2024-02-21T04:15:40;8.10;99.90
14236;DHT22;7202;50.718;7.072;2024-02-21T04:18:09;8.10;99.90
14236;DHT22;7202;50.718;7.072;2024-02-21T04:20:37;8.10;99.90
14236;DHT22;7202;50.718;7.072;2024-02-21T04:23:06;8.20;99.90
14236;DHT22;7202;50.718;7.072;2024-02-21T04:25:35;8.20;99.90
14236;DHT22;7202;50.718;7.072;2024-02-21T04:28:05;8.20;99.90
14236;DHT22;7202;50.718;7.072;2024-02-21T04:30:33;8.20;99.90
14236;DHT22;7202;50.718;7.072;2024-02-21T04:33:02;8.20;99.90
14236;DHT22;7202;50.718;7.072;2024-02-21T04:35:31;8.20;99.90
14236;DHT22;7202;50.718;7.072;2024-02-21T04:37:59;8.20;99.90
14236;DHT22;7202;50.718;7.072;2024-02-21T04:40:28;8.20;99.90
14236;DHT22;7202;50.718;7.072;2024-02-21T04:42:59;8.20;99.90
14236;DHT22;7202;50.718;7.072;2024-02-21T04:45:28;8.20;99.90
14236;DHT22;7202;50.718;7.072;2024-02-21T04:47:56;8.20;99.90
14236;DHT22;7202;50.718;7.072;2024-02-21T04:50:24;8.40;99.90
14236;DHT22;7202;50.718;7.072;2024-02-21T04:52:53;8.20;99.90
14236;DHT22;7202;50.718;7.072;2024-02-21T04:55:22;8.20;99.90
14236;DHT22;7202;50.718;7.072;2024-02-21T04:57:51;8.20;99.90
14236;DHT22;7202;50.718;7.072;2024-02-21T05:00:21;8.30;99.90
14236;DHT22;7202;50.718;7.072;2024-02-21T05:02:49;8.30;99.90
14236;DHT22;7202;50.718;7.072;2024-02-21T05:05:18;8.30;99.90
14236;DHT22;7202;50.718;7.072;2024-02-21T05:07:47;8.30;99.90
14236;DHT22;7202;50.718;7.072;2024-02-21T05:10:15;8.30;99.90
14236;DHT22;7202;50.718;7.072;2024-02-21T05:12:45;8.30;99.90
14236;DHT22;7202;50.718;7.072;2024-02-21T05:15:13;8.30;99.90
14236;DHT22;7202;50.718;7.072;2024-02-21T05:17:43;8.30;99.90
14236;DHT22;7202;50.718;7.072;2024-02-21T05:20:12;8.30;99.90
14236;DHT22;7202;50.718;7.072;2024-02-21T05:22:40;8.30;99.90
14236;DHT22;7202;50.718;7.072;2024-02-21T05:25:09;8.30;99.90
14236;DHT22;7202;50.718;7.072;2024-02-21T05:27:38;8.30;99.90
14236;DHT22;7202;50.718;7.072;2024-02-21T05:30:07;8.30;99.90
14236;DHT22;7202;50.718;7.072;2024-02-21T05:32:35;8.30;99.90
14236;DHT22;7202;50.718;7.072;2024-02-21T05:35:06;8.30;99.90
14236;DHT22;7202;50.718;7.072;2024-02-21T05:37:34;8.30;99.90
14236;DHT22;7202;50.718;7.072;2024-02-21T05:40:03;8.30;99.90
14236;DHT22;7202;50.718;7.072;2024-02-21T05:42:32;8.30;99.90
14236;DHT22;7202;50.718;7.072;2024-02-21T05:45:00;8.30;99.90
14236;DHT22;7202;50.718;7.072;2024-02-21T05:47:29;8.40;99.90
14236;DHT22;7202;50.718;7.072;2024-02-21T05:49:57;8.40;99.90
14236;DHT22;7202;50.718;7.072;2024-02-21T05:52:27;8.40;99.90
14236;DHT22;7202;50.718;7.072;2024-02-21T05:54:56;8.40;99.90
14236;DHT22;7202;50.718;7.072;2024-02-21T05:57:24;8.40;99.90
14236;DHT22;7202;50.718;7.072;2024-02-21T05:59:52;8.40;99.90
14236;DHT22;7202;50.718;7.072;2024-02-21T06:02:21;8.40;99.90
14236;DHT22;7202;50.718;7.072;2024-02-21T06:04:49;8.40;99.90
14236;DHT22;7202;50.718;7.072;2024-02-21T06:07:18;8.40;99.90
14236;DHT22;7202;50.718;7.072;2024-02-21T06:09:48;8.40;99.90
14236;DHT22;7202;50.718;7.072;2024-02-21T06:12:16;8.60;99.90
14236;DHT22;7202;50.718;7.072;2024-02-21T06:14:45;8.50;99.90
14236;DHT22;7202;50.718;7.072;2024-02-21T06:17:14;8.50;99.90
14236;DHT22;7202;50.718;7.072;2024-02-21T06:19:43;8.50;99.90
14236;DHT22;7202;50.718;7.072;2024-02-21T06:22:12;8.50;99.90
14236;DHT22;7202;50.718;7.072;2024-02-21T06:24:41;8.50;99.90
14236;DHT22;7202;50.718;7.072;2024-02-21T06:27:10;8.50;99.90
14236;DHT22;7202;50.718;7.072;2024-02-21T06:29:38;8.50;99.90
14236;DHT22;7202;50.718;7.072;2024-02-21T06:32:07;8.50;99.90
14236;DHT22;7202;50.718;7.072;2024-02-21T06:34:36;8.50;99.90
14236;DHT22;7202;50.718;7.072;2024-02-21T06:37:04;8.50;99.90
14236;DHT22;7202;50.718;7.072;2024-02-21T06:39:33;8.50;99.90
14236;DHT22;7202;50.718;7.072;2024-02-21T06:42:03;8.50;99.90
14236;DHT22;7202;50.718;7.072;2024-02-21T06:44:33;8.50;99.90
14236;DHT22;7202;50.718;7.072;2024-02-21T06:47:08;8.50;99.90
14236;DHT22;7202;50.718;7.072;2024-02-21T06:49:36;8.50;99.90
14236;DHT22;7202;50.718;7.072;2024-02-21T06:52:05;8.50;99.90
14236;DHT22;7202;50.718;7.072;2024-02-21T06:54:34;8.50;99.90
14236;DHT22;7202;50.718;7.072;2024-02-21T06:57:03;8.50;99.90
14236;DHT22;7202;50.718;7.072;2024-02-21T06:59:32;8.60;99.90
14236;DHT22;7202;50.718;7.072;2024-02-21T07:02:01;8.60;99.90
14236;DHT22;7202;50.718;7.072;2024-02-21T07:04:32;8.60;99.90
14236;DHT22;7202;50.718;7.072;2024-02-21T07:07:01;8.60;99.90
14236;DHT22;7202;50.718;7.072;2024-02-21T07:09:30;8.60;99.90
14236;DHT22;7202;50.718;7.072;2024-02-21T07:11:59;8.70;99.90
14236;DHT22;7202;50.718;7.072;2024-02-21T07:14:28;8.70;99.90
14236;DHT22;7202;50.718;7.072;2024-02-21T07:16:58;8.70;99.90
14236;DHT22;7202;50.718;7.072;2024-02-21T07:19:27;8.70;99.90
14236;DHT22;7202;50.718;7.072;2024-02-21T07:21:55;8.70;99.90
14236;DHT22;7202;50.718;7.072;2024-02-21T07:24:24;8.70;99.90
14236;DHT22;7202;50.718;7.072;2024-02-21T07:26:53;8.80;99.90
14236;DHT22;7202;50.718;7.072;2024-02-21T07:29:23;8.80;99.90
14236;DHT22;7202;50.718;7.072;2024-02-21T07:31:51;8.80;99.90
14236;DHT22;7202;50.718;7.072;2024-02-21T07:34:22;8.80;99.90
14236;DHT22;7202;50.718;7.072;2024-02-21T07:36:50;8.80;99.90
14236;DHT22;7202;50.718;7.072;2024-02-21T07:39:19;8.80;99.90
14236;DHT22;7202;50.718;7.072;2024-02-21T07:41:50;8.80;99.90
14236;DHT22;7202;50.718;7.072;2024-02-21T07:44:18;8.80;99.90
14236;DHT22;7202;50.718;7.072;2024-02-21T07:46:51;8.80;99.90
14236;DHT22;7202;50.718;7.072;2024-02-21T07:49:19;8.80;99.90
14236;DHT22;7202;50.718;7.072;2024-02-21T07:51:49;8.80;99.90
14236;DHT22;7202;50.718;7.072;2024-02-21T07:54:19;8.80;99.90
14236;DHT22;7202;50.718;7.072;2024-02-21T07:56:48;8.90;99.90
14236;DHT22;7202;50.718;7.072;2024-02-21T07:59:16;8.80;99.90
14236;DHT22;7202;50.718;7.072;2024-02-21T08:01:45;8.80;99.90
14236;DHT22;7202;50.718;7.072;2024-02-21T08:04:13;8.90;99.90
14236;DHT22;7202;50.718;7.072;2024-02-21T08:06:43;8.90;99.90
14236;DHT22;7202;50.718;7.072;2024-02-21T08:09:17;8.90;99.90
14236;DHT22;7202;50.718;7.072;2024-02-21T08:11:48;8.90;99.90
14236;DHT22;7202;50.718;7.072;2024-02-21T08:14:17;8.90;99.90
14236;DHT22;7202;50.718;7.072;2024-02-21T08:16:47;9.00;99.90
14236;DHT22;7202;50.718;7.072;2024-02-21T08:19:16;9.00;99.90
14236;DHT22;7202;50.718;7.072;2024-02-21T08:21:45;9.00;99.90
14236;DHT22;7202;50.718;7.072;2024-02-21T08:24:14;9.10;99.90
14236;DHT22;7202;50.718;7.072;2024-02-21T08:26:44;9.30;99.90
14236;DHT22;7202;50.718;7.072;2024-02-21T08:29:13;9.20;99.90
14236;DHT22;7202;50.718;7.072;2024-02-21T08:31:42;9.20;99.90
14236;DHT22;7202;50.718;7.072;2024-02-21T08:34:10;9.30;99.90
14236;DHT22;7202;50.718;7.072;2024-02-21T08:36:41;9.30;99.90
14236;DHT22;7202;50.718;7.072;2024-02-21T08:39:09;9.40;99.90
14236;DHT22;7202;50.718;7.072;2024-02-21T08:41:38;9.40;99.90
14236;DHT22;7202;50.718;7.072;2024-02-21T08:44:25;9.50;99.90
14236;DHT22;7202;50.718;7.072;2024-02-21T08:46:55;9.60;99.90
14236;DHT22;7202;50.718;7.072;2024-02-21T08:49:24;9.60;99.90
14236;DHT22;7202;50.718;7.072;2024-02-21T08:52:01;9.60;99.90
14236;DHT22;7202;50.718;7.072;2024-02-21T08:54:30;9.70;99.90
14236;DHT22;7202;50.718;7.072;2024-02-21T08:56:58;9.70;99.90
14236;DHT22;7202;50.718;7.072;2024-02-21T08:59:28;9.70;99.90
14236;DHT22;7202;50.718;7.072;2024-02-21T09:01:57;9.80;99.90
14236;DHT22;7202;50.718;7.072;2024-02-21T09:04:25;9.80;99.90
14236;DHT22;7202;50.718;7.072;2024-02-21T09:06:54;9.80;99.90
14236;DHT22;7202;50.718;7.072;2024-02-21T09:09:23;9.90;99.90
14236;DHT22;7202;50.718;7.072;2024-02-21T09:11:55;9.90;99.90
14236;DHT22;7202;50.718;7.072;2024-02-21T09:14:25;10.00;99.90
14236;DHT22;7202;50.718;7.072;2024-02-21T09:16:54;10.00;99.90
14236;DHT22;7202;50.718;7.072;2024-02-21T09:19:23;10.10;99.90
14236;DHT22;7202;50.718;7.072;2024-02-21T09:21:52;10.20;99.90
14236;DHT22;7202;50.718;7.072;2024-02-21T09:24:21;10.30;99.90
14236;DHT22;7202;50.718;7.072;2024-02-21T09:26:49;10.40;99.90
14236;DHT22;7202;50.718;7.072;2024-02-21T09:29:18;10.40;99.90
14236;DHT22;7202;50.718;7.072;2024-02-21T09:31:51;10.40;99.90
14236;DHT22;7202;50.718;7.072;2024-02-21T09:34:21;10.40;99.90
14236;DHT22;7202;50.718;7.072;2024-02-21T09:36:50;10.50;99.90
14236;DHT22;7202;50.718;7.072;2024-02-21T09:39:18;10.50;99.90
14236;DHT22;7202;50.718;7.072;2024-02-21T09:41:53;10.50;99.90
14236;DHT22;7202;50.718;7.072;2024-02-21T09:44:24;10.60;99.90
14236;DHT22;7202;50.718;7.072;2024-02-21T09:47:02;10.70;99.90
14236;DHT22;7202;50.718;7.072;2024-02-21T09:49:34;10.60;99.90
14236;DHT22;7202;50.718;7.072;2024-02-21T09:52:06;10.70;99.90
14236;DHT22;7202;50.718;7.072;2024-02-21T09:54:35;10.70;99.90
14236;DHT22;7202;50.718;7.072;2024-02-21T09:57:04;10.80;99.90
14236;DHT22;7202;50.718;7.072;2024-02-21T09:59:33;10.80;99.90
14236;DHT22;7202;50.718;7.072;2024-02-21T10:02:02;10.90;99.90
14236;DHT22;7202;50.718;7.072;2024-02-21T10:04:33;10.90;99.90
14236;DHT22;7202;50.718;7.072;2024-02-21T10:07:02;11.00;99.90
14236;DHT22;7202;50.718;7.072;2024-02-21T10:09:31;11.00;99.90
14236;DHT22;7202;50.718;7.072;2024-02-21T10:12:08;11.00;99.90
14236;DHT22;7202;50.718;7.072;2024-02-21T10:14:37;11.00;99.90
14236;DHT22;7202;50.718;7.072;2024-02-21T10:17:05;11.10;99.90
14236;DHT22;7202;50.718;7.072;2024-02-21T10:19:39;11.20;99.90
14236;DHT22;7202;50.718;7.072;2024-02-21T10:22:09;11.20;99.90
14236;DHT22;7202;50.718;7.072;2024-02-21T10:24:38;11.20;99.90
14236;DHT22;7202;50.718;7.072;2024-02-21T10:27:09;11.30;99.90
14236;DHT22;7202;50.718;7.072;2024-02-21T10:29:40;11.40;99.90
14236;DHT22;7202;50.718;7.072;2024-02-21T10:32:10;11.40;99.90
14236;DHT22;7202;50.718;7.072;2024-02-21T10:34:42;11.50;99.90
14236;DHT22;7202;50.718;7.072;2024-02-21T10:37:12;11.60;99.90
14236;DHT22;7202;50.718;7.072;2024-02-21T10:39:41;11.60;99.90
14236;DHT22;7202;50.718;7.072;2024-02-21T10:42:12;11.60;99.90
14236;DHT22;7202;50.718;7.072;2024-02-21T10:44:41;11.70;99.90
14236;DHT22;7202;50.718;7.072;2024-02-21T10:47:11;11.70;99.90
14236;DHT22;7202;50.718;7.072;2024-02-21T10:49:44;11.80;99.90
14236;DHT22;7202;50.718;7.072;2024-02-21T10:52:24;11.80;99.90
14236;DHT22;7202;50.718;7.072;2024-02-21T10:55:03;11.90;99.90
14236;DHT22;7202;50.718;7.072;2024-02-21T10:57:32;11.70;99.90
14236;DHT22;7202;50.718;7.072;2024-02-21T11:00:01;12.00;99.90
14236;DHT22;7202;50.718;7.072;2024-02-21T11:02:31;11.90;99.90
14236;DHT22;7202;50.718;7.072;2024-02-21T11:05:01;11.90;99.90
14236;DHT22;7202;50.718;7.072;2024-02-21T11:07:33;12.00;99.90
14236;DHT22;7202;50.718;7.072;2024-02-21T11:10:04;12.10;99.90
14236;DHT22;7202;50.718;7.072;2024-02-21T11:12:34;12.10;99.90
14236;DHT22;7202;50.718;7.072;2024-02-21T11:15:04;12.10;99.90
14236;DHT22;7202;50.718;7.072;2024-02-21T11:17:33;12.10;99.90
14236;DHT22;7202;50.718;7.072;2024-02-21T11:20:20;12.20;99.90
14236;DHT22;7202;50.718;7.072;2024-02-21T11:22:48;12.20;99.90
14236;DHT22;7202;50.718;7.072;2024-02-21T11:25:21;12.30;99.90
14236;DHT22;7202;50.718;7.072;2024-02-21T11:27:58;12.30;99.90
14236;DHT22;7202;50.718;7.072;2024-02-21T11:30:27;12.30;99.90
14236;DHT22;7202;50.718;7.072;2024-02-21T11:33:00;12.40;99.90
14236;DHT22;7202;50.718;7.072;2024-02-21T11:35:34;12.40;99.90
14236;DHT22;7202;50.718;7.072;2024-02-21T11:38:11;12.40;99.90
14236;DHT22;7202;50.718;7.072;2024-02-21T11:40:45;12.40;99.90
14236;DHT22;7202;50.718;7.072;2024-02-21T11:43:15;12.40;99.90
14236;DHT22;7202;50.718;7.072;2024-02-21T11:45:43;12.40;99.90
14236;DHT22;7202;50.718;7.072;2024-02-21T11:48:12;12.40;99.90
14236;DHT22;7202;50.718;7.072;2024-02-21T11:50:42;12.50;99.90
14236;DHT22;7202;50.718;7.072;2024-02-21T11:53:10;12.50;99.90
14236;DHT22;7202;50.718;7.072;2024-02-21T11:55:39;12.40;99.90
14236;DHT22;7202;50.718;7.072;2024-02-21T11:58:08;12.50;99.90
14236;DHT22;7202;50.718;7.072;2024-02-21T12:00:36;12.50;99.90
14236;DHT22;7202;50.718;7.072;2024-02-21T12:03:05;12.50;99.90
14236;DHT22;7202;50.718;7.072;2024-02-21T12:05:33;12.50;99.90
14236;DHT22;7202;50.718;7.072;2024-02-21T12:08:04;12.40;99.90
14236;DHT22;7202;50.718;7.072;2024-02-21T12:10:35;12.40;99.90
14236;DHT22;7202;50.718;7.072;2024-02-21T12:13:07;12.40;99.90
14236;DHT22;7202;50.718;7.072;2024-02-21T12:15:36;12.30;99.90
14236;DHT22;7202;50.718;7.072;2024-02-21T12:18:04;12.30;99.90
14236;DHT22;7202;50.718;7.072;2024-02-21T12:20:33;12.40;99.90
14236;DHT22;7202;50.718;7.072;2024-02-21T12:23:09;12.30;99.90
14236;DHT22;7202;50.718;7.072;2024-02-21T12:25:39;12.40;99.90
14236;DHT22;7202;50.718;7.072;2024-02-21T12:28:07;12.30;99.90
14236;DHT22;7202;50.718;7.072;2024-02-21T12:30:36;12.30;99.90
14236;DHT22;7202;50.718;7.072;2024-02-21T12:33:07;12.30;99.90
14236;DHT22;7202;50.718;7.072;2024-02-21T12:35:35;12.30;99.90
14236;DHT22;7202;50.718;7.072;2024-02-21T12:38:05;12.20;99.90
14236;DHT22;7202;50.718;7.072;2024-02-21T12:40:34;12.20;99.90
14236;DHT22;7202;50.718;7.072;2024-02-21T12:43:03;12.20;99.90
14236;DHT22;7202;50.718;7.072;2024-02-21T12:45:31;12.30;99.90
14236;DHT22;7202;50.718;7.072;2024-02-21T12:48:01;12.30;99.90
14236;DHT22;7202;50.718;7.072;2024-02-21T12:50:31;12.20;99.90
14236;DHT22;7202;50.718;7.072;2024-02-21T12:53:00;12.30;99.90
14236;DHT22;7202;50.718;7.072;2024-02-21T12:55:31;12.20;99.90
14236;DHT22;7202;50.718;7.072;2024-02-21T12:58:03;12.30;99.90
14236;DHT22;7202;50.718;7.072;2024-02-21T13:00:33;12.40;99.90
14236;DHT22;7202;50.718;7.072;2024-02-21T13:03:03;12.40;99.90
14236;DHT22;7202;50.718;7.072;2024-02-21T13:05:32;12.40;99.90
14236;DHT22;7202;50.718;7.072;2024-02-21T13:08:01;12.40;99.90
14236;DHT22;7202;50.718;7.072;2024-02-21T13:10:31;12.40;99.90
14236;DHT22;7202;50.718;7.072;2024-02-21T13:13:00;12.40;99.90
14236;DHT22;7202;50.718;7.072;2024-02-21T13:15:29;12.40;99.90
14236;DHT22;7202;50.718;7.072;2024-02-21T13:17:58;12.40;99.90
14236;DHT22;7202;50.718;7.072;2024-02-21T13:20:27;12.40;99.90
14236;DHT22;7202;50.718;7.072;2024-02-21T13:22:56;12.40;99.90
14236;DHT22;7202;50.718;7.072;2024-02-21T13:25:25;12.40;99.90
14236;DHT22;7202;50.718;7.072;2024-02-21T13:27:55;12.40;99.90
14236;DHT22;7202;50.718;7.072;2024-02-21T13:30:23;12.30;99.90
14236;DHT22;7202;50.718;7.072;2024-02-21T13:32:53;12.30;99.90
14236;DHT22;7202;50.718;7.072;2024-02-21T13:35:22;12.30;99.90
14236;DHT22;7202;50.718;7.072;2024-02-21T13:37:51;12.30;99.90
14236;DHT22;7202;50.718;7.072;2024-02-21T13:40:20;12.30;99.90
14236;DHT22;7202;50.718;7.072;2024-02-21T13:42:48;12.20;99.90
14236;DHT22;7202;50.718;7.072;2024-02-21T13:45:20;12.20;99.90
14236;DHT22;7202;50.718;7.072;2024-02-21T13:47:48;12.20;99.90
14236;DHT22;7202;50.718;7.072;2024-02-21T13:50:17;12.20;99.90
14236;DHT22;7202;50.718;7.072;2024-02-21T13:52:54;12.20;99.90
14236;DHT22;7202;50.718;7.072;2024-02-21T13:55:24;12.10;99.90
14236;DHT22;7202;50.718;7.072;2024-02-21T13:57:53;12.10;99.90
14236;DHT22;7202;50.718;7.072;2024-02-21T14:00:23;12.20;99.90
14236;DHT22;7202;50.718;7.072;2024-02-21T14:02:52;12.10;99.90
14236;DHT22;7202;50.718;7.072;2024-02-21T14:05:21;12.00;99.90
14236;DHT22;7202;50.718;7.072;2024-02-21T14:07:50;12.00;99.90
14236;DHT22;7202;50.718;7.072;2024-02-21T14:10:21;12.00;99.90
14236;DHT22;7202;50.718;7.072;2024-02-21T14:12:50;12.00;99.90
14236;DHT22;7202;50.718;7.072;2024-02-21T14:15:19;12.00;99.90
14236;DHT22;7202;50.718;7.072;2024-02-21T14:17:48;12.00;99.90
14236;DHT22;7202;50.718;7.072;2024-02-21T14:20:17;12.00;99.90
14236;DHT22;7202;50.718;7.072;2024-02-21T14:22:45;12.00;99.90
14236;DHT22;7202;50.718;7.072;2024-02-21T14:25:14;12.00;99.90
14236;DHT22;7202;50.718;7.072;2024-02-21T14:27:43;12.10;99.90
14236;DHT22;7202;50.718;7.072;2024-02-21T14:30:12;12.10;99.90
14236;DHT22;7202;50.718;7.072;2024-02-21T14:32:43;12.10;99.90
14236;DHT22;7202;50.718;7.072;2024-02-21T14:35:13;12.10;99.90
14236;DHT22;7202;50.718;7.072;2024-02-21T14:37:43;12.10;99.90
14236;DHT22;7202;50.718;7.072;2024-02-21T14:40:13;12.00;99.90
14236;DHT22;7202;50.718;7.072;2024-02-21T14:42:41;12.00;99.90
14236;DHT22;7202;50.718;7.072;2024-02-21T14:45:10;12.00;99.90
14236;DHT22;7202;50.718;7.072;2024-02-21T14:47:41;12.00;99.90
14236;DHT22;7202;50.718;7.072;2024-02-21T14:50:10;12.00;99.90
14236;DHT22;7202;50.718;7.072;2024-02-21T14:52:40;12.00;99.90
14236;DHT22;7202;50.718;7.072;2024-02-21T14:55:08;12.00;99.90
14236;DHT22;7202;50.718;7.072;2024-02-21T14:57:37;12.00;99.90
14236;DHT22;7202;50.718;7.072;2024-02-21T15:00:09;12.00;99.90
14236;DHT22;7202;50.718;7.072;2024-02-21T15:02:38;12.00;99.90
14236;DHT22;7202;50.718;7.072;2024-02-21T15:05:08;12.10;99.90
14236;DHT22;7202;50.718;7.072;2024-02-21T15:07:36;11.90;99.90
14236;DHT22;7202;50.718;7.072;2024-02-21T15:10:06;12.00;99.90
14236;DHT22;7202;50.718;7.072;2024-02-21T15:12:35;12.00;99.90
14236;DHT22;7202;50.718;7.072;2024-02-21T15:15:04;12.00;99.90
14236;DHT22;7202;50.718;7.072;2024-02-21T15:17:33;11.90;99.90
14236;DHT22;7202;50.718;7.072;2024-02-21T15:20:02;11.90;99.90
14236;DHT22;7202;50.718;7.072;2024-02-21T15:22:32;11.90;99.90
14236;DHT22;7202;50.718;7.072;2024-02-21T15:25:01;11.80;99.90
14236;DHT22;7202;50.718;7.072;2024-02-21T15:27:33;11.90;99.90
14236;DHT22;7202;50.718;7.072;2024-02-21T15:30:07;11.90;99.90
14236;DHT22;7202;50.718;7.072;2024-02-21T15:32:36;11.80;99.90
14236;DHT22;7202;50.718;7.072;2024-02-21T15:35:06;11.80;99.90
14236;DHT22;7202;50.718;7.072;2024-02-21T15:37:35;11.80;99.90
14236;DHT22;7202;50.718;7.072;2024-02-21T15:40:05;11.70;99.90
14236;DHT22;7202;50.718;7.072;2024-02-21T15:42:37;11.70;99.90
14236;DHT22;7202;50.718;7.072;2024-02-21T15:45:06;11.70;99.90
14236;DHT22;7202;50.718;7.072;2024-02-21T15:47:35;11.70;99.90
14236;DHT22;7202;50.718;7.072;2024-02-21T15:50:04;11.60;99.90
14236;DHT22;7202;50.718;7.072;2024-02-21T15:52:33;11.50;99.90
14236;DHT22;7202;50.718;7.072;2024-02-21T15:55:02;11.50;99.90
14236;DHT22;7202;50.718;7.072;2024-02-21T15:57:31;11.40;99.90
14236;DHT22;7202;50.718;7.072;2024-02-21T16:00:01;11.40;99.90
14236;DHT22;7202;50.718;7.072;2024-02-21T16:02:36;11.40;99.90
14236;DHT22;7202;50.718;7.072;2024-02-21T16:05:07;11.30;99.90
14236;DHT22;7202;50.718;7.072;2024-02-21T16:07:37;11.30;99.90
14236;DHT22;7202;50.718;7.072;2024-02-21T16:10:07;11.30;99.90